sensor_id;sensor_type;location;lat;lon;timestamp;temperature;humidity
790;DHT22;378;48.844;9.156;2023-04-07T00:01:49;6.00;99.90
790;DHT22;378;48.844;9.156;2023-04-07T00:04:16;6.00;99.90
790;DHT22;378;48.844;9.156;2023-04-07T00:06:43;6.10;99.90
790;DHT22;378;48.844;9.156;2023-04-07T00:09:11;6.00;99.90
790;DHT22;378;48.844;9.156;2023-04-07T00:11:38;5.90;99.90
790;DHT22;378;48.844;9.156;2023-04-07T00:14:05;5.90;99.90
790;DHT22;378;48.844;9.156;2023-04-07T00:16:32;6.00;99.90
790;DHT22;378;48.844;9.156;2023-04-07T00:18:59;5.90;99.90
790;DHT22;378;48.844;9.156;2023-04-07T00:21:26;5.90;99.90
790;DHT22;378;48.844;9.156;2023-04-07T00:23:53;5.90;99.90
790;DHT22;378;48.844;9.156;2023-04-07T00:26:21;5.90;99.90
790;DHT22;378;48.844;9.156;2023-04-07T00:28:48;5.90;99.90
790;DHT22;378;48.844;9.156;2023-04-07T00:31:14;5.90;99.90
790;DHT22;378;48.844;9.156;2023-04-07T00:33:41;5.90;99.90
790;DHT22;378;48.844;9.156;2023-04-07T00:36:08;6.00;99.90
790;DHT22;378;48.844;9.156;2023-04-07T00:38:35;6.00;99.90
790;DHT22;378;48.844;9.156;2023-04-07T00:41:02;6.00;99.90
790;DHT22;378;48.844;9.156;2023-04-07T00:43:30;5.90;99.90
790;DHT22;378;48.844;9.156;2023-04-07T00:45:57;6.00;99.90
790;DHT22;378;48.844;9.156;2023-04-07T00:48:24;6.00;99.90
790;DHT22;378;48.844;9.156;2023-04-07T00:50:51;6.00;99.90
790;DHT22;378;48.844;9.156;2023-04-07T00:53:18;5.90;99.90
790;DHT22;378;48.844;9.156;2023-04-07T00:55:45;5.90;99.90
790;DHT22;378;48.844;9.156;2023-04-07T00:58:12;5.90;99.90
790;DHT22;378;48.844;9.156;2023-04-07T01:00:44;5.90;99.90
790;DHT22;378;48.844;9.156;2023-04-07T01:03:18;5.90;99.90
790;DHT22;378;48.844;9.156;2023-04-07T01:05:54;5.90;99.90
790;DHT22;378;48.844;9.156;2023-04-07T01:08:25;5.90;99.90
790;DHT22;378;48.844;9.156;2023-04-07T01:10:59;5.90;99.90
790;DHT22;378;48.844;9.156;2023-04-07T01:13:31;5.90;99.90
790;DHT22;378;48.844;9.156;2023-04-07T01:16:04;5.90;99.90
790;DHT22;378;48.844;9.156;2023-04-07T01:18:32;5.90;99.90
790;DHT22;378;48.844;9.156;2023-04-07T01:21:03;5.80;99.90
790;DHT22;378;48.844;9.156;2023-04-07T01:23:43;5.80;99.90
790;DHT22;378;48.844;9.156;2023-04-07T01:26:19;5.80;99.90
790;DHT22;378;48.844;9.156;2023-04-07T01:29:03;5.80;99.90
790;DHT22;378;48.844;9.156;2023-04-07T01:31:36;5.80;99.90
790;DHT22;378;48.844;9.156;2023-04-07T01:34:06;5.80;99.90
790;DHT22;378;48.844;9.156;2023-04-07T01:36:35;5.80;99.90
790;DHT22;378;48.844;9.156;2023-04-07T01:39:02;5.80;99.90
790;DHT22;378;48.844;9.156;2023-04-07T01:41:29;5.90;99.90
790;DHT22;378;48.844;9.156;2023-04-07T01:43:57;5.80;99.90
790;DHT22;378;48.844;9.156;2023-04-07T01:46:24;5.90;99.90
790;DHT22;378;48.844;9.156;2023-04-07T01:48:53;5.90;99.90
790;DHT22;378;48.844;9.156;2023-04-07T01:51:21;5.90;99.90
790;DHT22;378;48.844;9.156;2023-04-07T01:53:48;5.90;99.90
790;DHT22;378;48.844;9.156;2023-04-07T01:56:15;5.90;99.90
790;DHT22;378;48.844;9.156;2023-04-07T01:58:42;5.90;99.90
790;DHT22;378;48.844;9.156;2023-04-07T02:01:09;5.90;99.90
790;DHT22;378;48.844;9.156;2023-04-07T02:03:41;5.80;99.90
790;DHT22;378;48.844;9.156;2023-04-07T02:06:12;5.90;99.90
790;DHT22;378;48.844;9.156;2023-04-07T02:08:48;5.80;99.90
790;DHT22;378;48.844;9.156;2023-04-07T02:11:17;5.80;99.90
790;DHT22;378;48.844;9.156;2023-04-07T02:13:46;5.80;99.90
790;DHT22;378;48.844;9.156;2023-04-07T02:16:14;5.80;99.90
790;DHT22;378;48.844;9.156;2023-04-07T02:18:42;5.80;99.90
790;DHT22;378;48.844;9.156;2023-04-07T02:21:13;5.80;99.90
790;DHT22;378;48.844;9.156;2023-04-07T02:23:40;5.80;99.90
790;DHT22;378;48.844;9.156;2023-04-07T02:26:08;5.80;99.90
790;DHT22;378;48.844;9.156;2023-04-07T02:28:35;5.90;99.90
790;DHT22;378;48.844;9.156;2023-04-07T02:31:02;5.90;99.90
790;DHT22;378;48.844;9.156;2023-04-07T02:33:28;5.80;99.90
790;DHT22;378;48.844;9.156;2023-04-07T02:35:55;5.80;99.90
790;DHT22;378;48.844;9.156;2023-04-07T02:38:24;5.80;99.90
790;DHT22;378;48.844;9.156;2023-04-07T02:40:50;5.80;99.90
790;DHT22;378;48.844;9.156;2023-04-07T02:43:19;5.90;99.90
790;DHT22;378;48.844;9.156;2023-04-07T02:45:45;5.90;99.90
790;DHT22;378;48.844;9.156;2023-04-07T02:48:12;5.90;99.90
790;DHT22;378;48.844;9.156;2023-04-07T02:50:39;5.90;99.90
790;DHT22;378;48.844;9.156;2023-04-07T02:53:06;6.00;99.90
790;DHT22;378;48.844;9.156;2023-04-07T02:55:35;6.00;99.90
790;DHT22;378;48.844;9.156;2023-04-07T02:58:01;6.00;99.90
790;DHT22;378;48.844;9.156;2023-04-07T03:00:28;6.00;99.90
790;DHT22;378;48.844;9.156;2023-04-07T03:02:55;6.00;99.90
790;DHT22;378;48.844;9.156;2023-04-07T03:05:22;6.00;99.90
790;DHT22;378;48.844;9.156;2023-04-07T03:07:49;6.10;99.90
790;DHT22;378;48.844;9.156;2023-04-07T03:10:16;6.10;99.90
790;DHT22;378;48.844;9.156;2023-04-07T03:12:44;6.10;99.90
790;DHT22;378;48.844;9.156;2023-04-07T03:15:11;6.20;99.90
790;DHT22;378;48.844;9.156;2023-04-07T03:17:37;6.10;99.90
790;DHT22;378;48.844;9.156;2023-04-07T03:20:06;6.10;99.90
790;DHT22;378;48.844;9.156;2023-04-07T03:22:33;6.10;99.90
790;DHT22;378;48.844;9.156;2023-04-07T03:25:00;6.10;99.90
790;DHT22;378;48.844;9.156;2023-04-07T03:27:26;6.10;99.90
790;DHT22;378;48.844;9.156;2023-04-07T03:29:55;6.10;99.90
790;DHT22;378;48.844;9.156;2023-04-07T03:32:21;6.10;99.90
790;DHT22;378;48.844;9.156;2023-04-07T03:34:48;6.10;99.90
790;DHT22;378;48.844;9.156;2023-04-07T03:37:15;6.10;99.90
790;DHT22;378;48.844;9.156;2023-04-07T03:39:42;6.10;99.90
790;DHT22;378;48.844;9.156;2023-04-07T03:42:08;6.20;99.90
790;DHT22;378;48.844;9.156;2023-04-07T03:44:35;6.20;99.90
790;DHT22;378;48.844;9.156;2023-04-07T03:47:04;6.20;99.90
790;DHT22;378;48.844;9.156;2023-04-07T03:49:30;6.20;99.90
790;DHT22;378;48.844;9.156;2023-04-07T03:51:57;6.20;99.90
790;DHT22;378;48.844;9.156;2023-04-07T03:54:24;6.20;99.90
790;DHT22;378;48.844;9.156;2023-04-07T03:56:51;6.20;99.90
790;DHT22;378;48.844;9.156;2023-04-07T03:59:18;6.20;99.90
790;DHT22;378;48.844;9.156;2023-04-07T04:01:45;6.20;99.90
790;DHT22;378;48.844;9.156;2023-04-07T04:04:13;6.20;99.90
790;DHT22;378;48.844;9.156;2023-04-07T04:06:40;6.20;99.90
790;DHT22;378;48.844;9.156;2023-04-07T04:09:06;6.30;99.90
790;DHT22;378;48.844;9.156;2023-04-07T04:11:33;6.30;99.90
790;DHT22;378;48.844;9.156;2023-04-07T04:14:00;6.30;99.90
790;DHT22;378;48.844;9.156;2023-04-07T04:16:27;6.30;99.90
790;DHT22;378;48.844;9.156;2023-04-07T04:18:55;6.40;99.90
790;DHT22;378;48.844;9.156;2023-04-07T04:21:24;6.40;99.90
790;DHT22;378;48.844;9.156;2023-04-07T04:23:51;6.30;99.90
790;DHT22;378;48.844;9.156;2023-04-07T04:26:18;6.30;99.90
790;DHT22;378;48.844;9.156;2023-04-07T04:28:45;6.30;99.90
790;DHT22;378;48.844;9.156;2023-04-07T04:31:12;6.20;99.90
790;DHT22;378;48.844;9.156;2023-04-07T04:33:39;6.20;99.90
790;DHT22;378;48.844;9.156;2023-04-07T04:36:06;6.10;99.90
790;DHT22;378;48.844;9.156;2023-04-07T04:38:34;6.20;99.90
790;DHT22;378;48.844;9.156;2023-04-07T04:41:01;6.20;99.90
790;DHT22;378;48.844;9.156;2023-04-07T04:43:28;6.20;99.90
790;DHT22;378;48.844;9.156;2023-04-07T04:45:55;6.20;99.90
790;DHT22;378;48.844;9.156;2023-04-07T04:48:22;6.10;99.90
790;DHT22;378;48.844;9.156;2023-04-07T04:50:49;6.20;99.90
790;DHT22;378;48.844;9.156;2023-04-07T04:53:16;6.10;99.90
790;DHT22;378;48.844;9.156;2023-04-07T04:55:44;6.10;99.90
790;DHT22;378;48.844;9.156;2023-04-07T04:58:16;6.10;99.90
790;DHT22;378;48.844;9.156;2023-04-07T05:00:43;6.20;99.90
790;DHT22;378;48.844;9.156;2023-04-07T05:03:10;6.30;99.90
790;DHT22;378;48.844;9.156;2023-04-07T05:05:37;6.20;99.90
790;DHT22;378;48.844;9.156;2023-04-07T05:08:04;6.30;99.90
790;DHT22;378;48.844;9.156;2023-04-07T05:10:31;6.30;99.90
790;DHT22;378;48.844;9.156;2023-04-07T05:13:00;6.30;99.90
790;DHT22;378;48.844;9.156;2023-04-07T05:15:27;6.40;99.90
790;DHT22;378;48.844;9.156;2023-04-07T05:17:53;6.40;99.90
790;DHT22;378;48.844;9.156;2023-04-07T05:20:20;6.40;99.90
790;DHT22;378;48.844;9.156;2023-04-07T05:22:47;6.40;99.90
790;DHT22;378;48.844;9.156;2023-04-07T05:25:14;6.40;99.90
790;DHT22;378;48.844;9.156;2023-04-07T05:27:41;6.50;99.90
790;DHT22;378;48.844;9.156;2023-04-07T05:30:10;6.50;99.90
790;DHT22;378;48.844;9.156;2023-04-07T05:32:37;6.50;99.90
790;DHT22;378;48.844;9.156;2023-04-07T05:35:04;6.40;99.90
790;DHT22;378;48.844;9.156;2023-04-07T05:37:31;6.40;99.90
790;DHT22;378;48.844;9.156;2023-04-07T05:39:58;6.50;99.90
790;DHT22;378;48.844;9.156;2023-04-07T05:42:25;6.50;99.90
790;DHT22;378;48.844;9.156;2023-04-07T05:44:52;6.60;99.90
790;DHT22;378;48.844;9.156;2023-04-07T05:47:20;6.60;99.90
790;DHT22;378;48.844;9.156;2023-04-07T05:49:47;6.70;99.90
790;DHT22;378;48.844;9.156;2023-04-07T05:52:13;6.70;99.90
790;DHT22;378;48.844;9.156;2023-04-07T05:54:40;6.80;99.90
790;DHT22;378;48.844;9.156;2023-04-07T05:57:08;6.80;99.90
790;DHT22;378;48.844;9.156;2023-04-07T05:59:35;6.80;99.90
790;DHT22;378;48.844;9.156;2023-04-07T06:02:02;6.80;99.90
790;DHT22;378;48.844;9.156;2023-04-07T06:04:30;6.90;99.90
790;DHT22;378;48.844;9.156;2023-04-07T06:06:58;6.80;99.90
790;DHT22;378;48.844;9.156;2023-04-07T06:09:25;6.90;99.90
790;DHT22;378;48.844;9.156;2023-04-07T06:11:52;6.90;99.90
790;DHT22;378;48.844;9.156;2023-04-07T06:14:19;6.90;99.90
790;DHT22;378;48.844;9.156;2023-04-07T06:16:46;7.00;99.90
790;DHT22;378;48.844;9.156;2023-04-07T06:19:12;7.00;99.90
790;DHT22;378;48.844;9.156;2023-04-07T06:21:41;7.10;99.90
790;DHT22;378;48.844;9.156;2023-04-07T06:24:08;7.20;99.90
790;DHT22;378;48.844;9.156;2023-04-07T06:26:34;7.20;99.90
790;DHT22;378;48.844;9.156;2023-04-07T06:29:01;7.30;99.90
790;DHT22;378;48.844;9.156;2023-04-07T06:31:28;7.40;99.90
790;DHT22;378;48.844;9.156;2023-04-07T06:33:55;7.40;99.90
790;DHT22;378;48.844;9.156;2023-04-07T06:36:22;7.40;99.90
790;DHT22;378;48.844;9.156;2023-04-07T06:38:50;7.50;99.90
790;DHT22;378;48.844;9.156;2023-04-07T06:41:17;7.50;99.90
790;DHT22;378;48.844;9.156;2023-04-07T06:43:47;7.60;99.90
790;DHT22;378;48.844;9.156;2023-04-07T06:46:15;7.60;99.90
790;DHT22;378;48.844;9.156;2023-04-07T06:48:42;7.50;99.90
790;DHT22;378;48.844;9.156;2023-04-07T06:51:09;7.50;99.90
790;DHT22;378;48.844;9.156;2023-04-07T06:53:36;7.50;99.90
790;DHT22;378;48.844;9.156;2023-04-07T06:56:06;7.60;99.90
790;DHT22;378;48.844;9.156;2023-04-07T06:58:34;7.70;99.90
790;DHT22;378;48.844;9.156;2023-04-07T07:01:02;7.70;99.90
790;DHT22;378;48.844;9.156;2023-04-07T07:03:29;7.70;99.90
790;DHT22;378;48.844;9.156;2023-04-07T07:05:56;7.70;99.90
790;DHT22;378;48.844;9.156;2023-04-07T07:08:23;7.70;99.90
790;DHT22;378;48.844;9.156;2023-04-07T07:10:51;7.70;99.90
790;DHT22;378;48.844;9.156;2023-04-07T07:13:21;7.80;99.90
790;DHT22;378;48.844;9.156;2023-04-07T07:15:48;7.80;99.90
790;DHT22;378;48.844;9.156;2023-04-07T07:18:15;7.90;99.90
790;DHT22;378;48.844;9.156;2023-04-07T07:20:42;8.10;99.90
790;DHT22;378;48.844;9.156;2023-04-07T07:23:09;8.00;99.90
790;DHT22;378;48.844;9.156;2023-04-07T07:25:36;8.10;99.90
790;DHT22;378;48.844;9.156;2023-04-07T07:28:03;8.20;99.90
790;DHT22;378;48.844;9.156;2023-04-07T07:30:31;8.40;99.90
790;DHT22;378;48.844;9.156;2023-04-07T07:32:58;8.70;99.90
790;DHT22;378;48.844;9.156;2023-04-07T07:35:25;9.20;99.90
790;DHT22;378;48.844;9.156;2023-04-07T07:37:52;9.50;99.90
790;DHT22;378;48.844;9.156;2023-04-07T07:40:19;9.70;99.90
790;DHT22;378;48.844;9.156;2023-04-07T07:42:46;10.00;99.90
790;DHT22;378;48.844;9.156;2023-04-07T07:45:13;10.80;99.90
790;DHT22;378;48.844;9.156;2023-04-07T07:47:41;12.50;99.90
790;DHT22;378;48.844;9.156;2023-04-07T07:50:08;13.50;99.90
790;DHT22;378;48.844;9.156;2023-04-07T07:52:35;14.20;99.90
790;DHT22;378;48.844;9.156;2023-04-07T07:55:03;14.40;99.90
790;DHT22;378;48.844;9.156;2023-04-07T07:57:30;14.80;99.90
790;DHT22;378;48.844;9.156;2023-04-07T07:59:57;14.60;99.90
790;DHT22;378;48.844;9.156;2023-04-07T08:02:24;14.90;99.90
790;DHT22;378;48.844;9.156;2023-04-07T08:04:57;14.80;99.90
790;DHT22;378;48.844;9.156;2023-04-07T08:07:23;14.90;99.90
790;DHT22;378;48.844;9.156;2023-04-07T08:09:50;13.80;99.90
790;DHT22;378;48.844;9.156;2023-04-07T08:12:17;13.80;99.90
790;DHT22;378;48.844;9.156;2023-04-07T08:14:44;13.50;99.90
790;DHT22;378;48.844;9.156;2023-04-07T08:17:11;13.00;99.90
790;DHT22;378;48.844;9.156;2023-04-07T08:19:38;12.60;99.90
790;DHT22;378;48.844;9.156;2023-04-07T08:22:06;12.70;99.90
790;DHT22;378;48.844;9.156;2023-04-07T08:24:33;13.20;99.90
790;DHT22;378;48.844;9.156;2023-04-07T08:27:00;14.30;99.90
790;DHT22;378;48.844;9.156;2023-04-07T08:29:27;14.70;99.90
790;DHT22;378;48.844;9.156;2023-04-07T08:31:53;15.80;99.90
790;DHT22;378;48.844;9.156;2023-04-07T08:34:20;16.60;99.90
790;DHT22;378;48.844;9.156;2023-04-07T08:36:47;16.60;99.90
790;DHT22;378;48.844;9.156;2023-04-07T08:39:15;16.80;99.90
790;DHT22;378;48.844;9.156;2023-04-07T08:41:43;17.10;99.90
790;DHT22;378;48.844;9.156;2023-04-07T08:44:14;17.30;99.90
790;DHT22;378;48.844;9.156;2023-04-07T08:46:42;17.90;99.90
790;DHT22;378;48.844;9.156;2023-04-07T08:49:11;18.60;99.90
790;DHT22;378;48.844;9.156;2023-04-07T08:51:44;19.70;99.90
790;DHT22;378;48.844;9.156;2023-04-07T08:54:13;19.60;99.90
790;DHT22;378;48.844;9.156;2023-04-07T08:56:42;18.90;99.90
790;DHT22;378;48.844;9.156;2023-04-07T08:59:10;19.10;99.90
790;DHT22;378;48.844;9.156;2023-04-07T09:01:38;19.60;99.90
790;DHT22;378;48.844;9.156;2023-04-07T09:04:06;19.50;99.90
790;DHT22;378;48.844;9.156;2023-04-07T09:06:34;19.30;99.90
790;DHT22;378;48.844;9.156;2023-04-07T09:09:02;19.60;99.90
790;DHT22;378;48.844;9.156;2023-04-07T09:11:34;19.70;99.90
790;DHT22;378;48.844;9.156;2023-04-07T09:14:02;19.20;99.90
790;DHT22;378;48.844;9.156;2023-04-07T09:16:29;18.90;99.90
790;DHT22;378;48.844;9.156;2023-04-07T09:18:56;18.40;99.90
790;DHT22;378;48.844;9.156;2023-04-07T09:21:23;17.70;99.90
790;DHT22;378;48.844;9.156;2023-04-07T09:23:51;18.10;99.90
790;DHT22;378;48.844;9.156;2023-04-07T09:26:20;19.50;99.90
790;DHT22;378;48.844;9.156;2023-04-07T09:28:51;19.70;99.90
790;DHT22;378;48.844;9.156;2023-04-07T09:31:19;18.80;99.90
790;DHT22;378;48.844;9.156;2023-04-07T09:33:47;18.60;99.90
790;DHT22;378;48.844;9.156;2023-04-07T09:36:14;18.90;99.90
790;DHT22;378;48.844;9.156;2023-04-07T09:38:42;18.60;99.90
790;DHT22;378;48.844;9.156;2023-04-07T09:41:10;18.50;99.90
790;DHT22;378;48.844;9.156;2023-04-07T09:43:39;18.70;99.90
790;DHT22;378;48.844;9.156;2023-04-07T09:46:07;19.90;99.90
790;DHT22;378;48.844;9.156;2023-04-07T09:48:36;20.30;99.90
790;DHT22;378;48.844;9.156;2023-04-07T09:51:10;18.50;99.90
790;DHT22;378;48.844;9.156;2023-04-07T09:53:45;17.20;99.90
790;DHT22;378;48.844;9.156;2023-04-07T09:56:13;16.40;99.90
790;DHT22;378;48.844;9.156;2023-04-07T09:58:43;16.00;99.90
790;DHT22;378;48.844;9.156;2023-04-07T10:01:10;15.30;99.90
790;DHT22;378;48.844;9.156;2023-04-07T10:03:38;15.10;99.90
790;DHT22;378;48.844;9.156;2023-04-07T10:06:06;15.10;99.90
790;DHT22;378;48.844;9.156;2023-04-07T10:08:35;15.10;99.90
790;DHT22;378;48.844;9.156;2023-04-07T10:11:03;15.50;99.90
790;DHT22;378;48.844;9.156;2023-04-07T10:13:32;15.50;99.90
790;DHT22;378;48.844;9.156;2023-04-07T10:16:02;15.10;99.90
790;DHT22;378;48.844;9.156;2023-04-07T10:18:30;16.00;99.90
790;DHT22;378;48.844;9.156;2023-04-07T10:21:00;17.30;99.90
790;DHT22;378;48.844;9.156;2023-04-07T10:23:42;18.00;99.90
790;DHT22;378;48.844;9.156;2023-04-07T10:26:13;18.10;99.90
790;DHT22;378;48.844;9.156;2023-04-07T10:28:43;17.20;99.90
790;DHT22;378;48.844;9.156;2023-04-07T10:31:12;16.90;99.90
790;DHT22;378;48.844;9.156;2023-04-07T10:33:47;17.00;99.90
790;DHT22;378;48.844;9.156;2023-04-07T10:36:16;17.20;99.90
790;DHT22;378;48.844;9.156;2023-04-07T10:41:43;17.60;99.90
790;DHT22;378;48.844;9.156;2023-04-07T10:44:45;16.70;99.90
790;DHT22;378;48.844;9.156;2023-04-07T10:47:12;15.80;99.90
790;DHT22;378;48.844;9.156;2023-04-07T10:50:17;15.00;99.90
790;DHT22;378;48.844;9.156;2023-04-07T10:52:45;14.20;99.90
790;DHT22;378;48.844;9.156;2023-04-07T10:55:32;13.70;99.90
790;DHT22;378;48.844;9.156;2023-04-07T10:58:18;13.40;99.90
790;DHT22;378;48.844;9.156;2023-04-07T11:01:15;13.10;99.90
790;DHT22;378;48.844;9.156;2023-04-07T11:03:53;12.90;99.90
790;DHT22;378;48.844;9.156;2023-04-07T11:06:22;12.90;99.90
790;DHT22;378;48.844;9.156;2023-04-07T11:08:51;12.90;99.90
790;DHT22;378;48.844;9.156;2023-04-07T11:11:34;13.00;99.90
790;DHT22;378;48.844;9.156;2023-04-07T11:14:03;12.90;99.90
790;DHT22;378;48.844;9.156;2023-04-07T11:16:37;12.60;99.90
790;DHT22;378;48.844;9.156;2023-04-07T11:19:05;12.50;99.90
790;DHT22;378;48.844;9.156;2023-04-07T11:21:33;12.40;99.90
790;DHT22;378;48.844;9.156;2023-04-07T11:24:01;12.40;99.90
790;DHT22;378;48.844;9.156;2023-04-07T11:26:29;12.50;99.90
790;DHT22;378;48.844;9.156;2023-04-07T11:28:56;12.50;99.90
790;DHT22;378;48.844;9.156;2023-04-07T11:31:24;12.50;99.90
790;DHT22;378;48.844;9.156;2023-04-07T11:33:52;12.50;99.90
790;DHT22;378;48.844;9.156;2023-04-07T11:36:27;12.50;99.90
790;DHT22;378;48.844;9.156;2023-04-07T11:38:56;12.50;99.90
790;DHT22;378;48.844;9.156;2023-04-07T11:41:24;12.50;99.90
790;DHT22;378;48.844;9.156;2023-04-07T11:44:08;12.30;99.90
790;DHT22;378;48.844;9.156;2023-04-07T11:46:36;12.20;99.90
790;DHT22;378;48.844;9.156;2023-04-07T11:49:12;12.10;99.90
790;DHT22;378;48.844;9.156;2023-04-07T11:51:41;12.00;99.90
790;DHT22;378;48.844;9.156;2023-04-07T11:54:10;11.80;99.90
790;DHT22;378;48.844;9.156;2023-04-07T11:56:44;11.30;99.90
790;DHT22;378;48.844;9.156;2023-04-07T11:59:22;10.70;99.90
790;DHT22;378;48.844;9.156;2023-04-07T12:01:50;10.40;99.90
790;DHT22;378;48.844;9.156;2023-04-07T12:04:18;10.40;99.90
790;DHT22;378;48.844;9.156;2023-04-07T12:06:46;10.40;99.90
790;DHT22;378;48.844;9.156;2023-04-07T12:09:31;10.40;99.90
790;DHT22;378;48.844;9.156;2023-04-07T12:12:02;10.40;99.90
790;DHT22;378;48.844;9.156;2023-04-07T12:14:30;10.30;99.90
790;DHT22;378;48.844;9.156;2023-04-07T12:16:57;10.10;99.90
790;DHT22;378;48.844;9.156;2023-04-07T12:19:26;10.00;99.90
790;DHT22;378;48.844;9.156;2023-04-07T12:21:53;10.00;99.90
790;DHT22;378;48.844;9.156;2023-04-07T12:24:20;10.00;99.90
790;DHT22;378;48.844;9.156;2023-04-07T12:26:49;10.00;99.90
790;DHT22;378;48.844;9.156;2023-04-07T12:29:16;10.00;99.90
790;DHT22;378;48.844;9.156;2023-04-07T12:31:44;9.90;99.90
790;DHT22;378;48.844;9.156;2023-04-07T12:34:11;10.00;99.90
790;DHT22;378;48.844;9.156;2023-04-07T12:36:38;9.90;99.90
790;DHT22;378;48.844;9.156;2023-04-07T12:39:05;9.80;99.90
790;DHT22;378;48.844;9.156;2023-04-07T12:41:31;9.90;99.90
790;DHT22;378;48.844;9.156;2023-04-07T12:43:59;9.90;99.90
790;DHT22;378;48.844;9.156;2023-04-07T12:46:26;9.80;99.90
790;DHT22;378;48.844;9.156;2023-04-07T12:48:53;10.00;99.90
790;DHT22;378;48.844;9.156;2023-04-07T12:51:20;10.20;99.90
790;DHT22;378;48.844;9.156;2023-04-07T12:53:47;10.40;99.90
790;DHT22;378;48.844;9.156;2023-04-07T12:56:14;10.60;99.90
790;DHT22;378;48.844;9.156;2023-04-07T12:58:41;10.60;99.90
790;DHT22;378;48.844;9.156;2023-04-07T13:01:09;10.70;99.90
790;DHT22;378;48.844;9.156;2023-04-07T13:03:36;10.80;99.90
790;DHT22;378;48.844;9.156;2023-04-07T13:06:03;10.90;99.90
790;DHT22;378;48.844;9.156;2023-04-07T13:08:30;11.00;99.90
790;DHT22;378;48.844;9.156;2023-04-07T13:10:57;11.20;99.90
790;DHT22;378;48.844;9.156;2023-04-07T13:13:24;11.30;99.90
790;DHT22;378;48.844;9.156;2023-04-07T13:15:51;11.60;99.90
790;DHT22;378;48.844;9.156;2023-04-07T13:18:19;11.80;99.90
790;DHT22;378;48.844;9.156;2023-04-07T13:20:46;11.90;99.90
790;DHT22;378;48.844;9.156;2023-04-07T13:23:13;11.90;99.90
790;DHT22;378;48.844;9.156;2023-04-07T13:25:40;12.00;99.90
790;DHT22;378;48.844;9.156;2023-04-07T13:28:07;12.10;99.90
790;DHT22;378;48.844;9.156;2023-04-07T13:30:34;12.10;99.90
790;DHT22;378;48.844;9.156;2023-04-07T13:33:00;12.20;99.90
790;DHT22;378;48.844;9.156;2023-04-07T13:35:29;12.20;99.90
790;DHT22;378;48.844;9.156;2023-04-07T13:38:00;12.30;99.90
790;DHT22;378;48.844;9.156;2023-04-07T13:40:27;12.10;99.90
790;DHT22;378;48.844;9.156;2023-04-07T13:42:53;12.00;99.90
790;DHT22;378;48.844;9.156;2023-04-07T13:45:21;11.70;99.90
790;DHT22;378;48.844;9.156;2023-04-07T13:47:48;11.30;99.90
790;DHT22;378;48.844;9.156;2023-04-07T13:50:15;11.20;99.90
790;DHT22;378;48.844;9.156;2023-04-07T13:52:43;11.20;99.90
790;DHT22;378;48.844;9.156;2023-04-07T13:55:10;11.00;99.90
790;DHT22;378;48.844;9.156;2023-04-07T13:57:36;10.80;99.90
790;DHT22;378;48.844;9.156;2023-04-07T14:00:04;10.70;99.90
790;DHT22;378;48.844;9.156;2023-04-07T14:02:32;10.60;99.90
790;DHT22;378;48.844;9.156;2023-04-07T14:04:58;10.60;99.90
790;DHT22;378;48.844;9.156;2023-04-07T14:07:25;10.70;99.90
790;DHT22;378;48.844;9.156;2023-04-07T14:09:53;10.70;99.90
790;DHT22;378;48.844;9.156;2023-04-07T14:12:20;10.80;99.90
790;DHT22;378;48.844;9.156;2023-04-07T14:14:48;11.10;99.90
790;DHT22;378;48.844;9.156;2023-04-07T14:17:16;11.30;99.90
790;DHT22;378;48.844;9.156;2023-04-07T14:19:43;11.40;99.90
790;DHT22;378;48.844;9.156;2023-04-07T14:22:13;11.70;99.90
790;DHT22;378;48.844;9.156;2023-04-07T14:24:39;11.80;99.90
790;DHT22;378;48.844;9.156;2023-04-07T14:27:08;11.80;99.90
790;DHT22;378;48.844;9.156;2023-04-07T14:29:35;11.80;99.90
790;DHT22;378;48.844;9.156;2023-04-07T14:32:02;11.90;99.90
790;DHT22;378;48.844;9.156;2023-04-07T14:34:28;11.90;99.90
790;DHT22;378;48.844;9.156;2023-04-07T14:36:57;11.80;99.90
790;DHT22;378;48.844;9.156;2023-04-07T14:39:24;11.80;99.90
790;DHT22;378;48.844;9.156;2023-04-07T14:41:51;12.00;99.90
790;DHT22;378;48.844;9.156;2023-04-07T14:44:20;12.00;99.90
790;DHT22;378;48.844;9.156;2023-04-07T14:46:47;12.30;99.90
790;DHT22;378;48.844;9.156;2023-04-07T14:49:14;12.50;99.90
790;DHT22;378;48.844;9.156;2023-04-07T14:51:41;12.70;99.90
790;DHT22;378;48.844;9.156;2023-04-07T14:54:08;13.00;99.90
790;DHT22;378;48.844;9.156;2023-04-07T14:56:35;12.90;99.90
790;DHT22;378;48.844;9.156;2023-04-07T14:59:01;13.00;99.90
790;DHT22;378;48.844;9.156;2023-04-07T15:01:30;13.00;99.90
790;DHT22;378;48.844;9.156;2023-04-07T15:03:57;13.00;99.90
790;DHT22;378;48.844;9.156;2023-04-07T15:06:25;13.20;99.90
790;DHT22;378;48.844;9.156;2023-04-07T15:08:52;13.30;99.90
790;DHT22;378;48.844;9.156;2023-04-07T15:11:19;13.30;99.90
790;DHT22;378;48.844;9.156;2023-04-07T15:13:47;13.30;99.90
790;DHT22;378;48.844;9.156;2023-04-07T15:16:14;13.10;99.90
790;DHT22;378;48.844;9.156;2023-04-07T15:18:43;13.00;99.90
790;DHT22;378;48.844;9.156;2023-04-07T15:21:12;13.00;99.90
790;DHT22;378;48.844;9.156;2023-04-07T15:23:39;13.10;99.90
790;DHT22;378;48.844;9.156;2023-04-07T15:26:07;13.10;99.90
790;DHT22;378;48.844;9.156;2023-04-07T15:28:34;13.60;99.90
790;DHT22;378;48.844;9.156;2023-04-07T15:31:01;14.50;99.90
790;DHT22;378;48.844;9.156;2023-04-07T15:33:32;14.90;99.90
790;DHT22;378;48.844;9.156;2023-04-07T15:36:01;15.30;99.90
790;DHT22;378;48.844;9.156;2023-04-07T15:38:28;14.90;99.90
790;DHT22;378;48.844;9.156;2023-04-07T15:40:54;14.90;99.90
790;DHT22;378;48.844;9.156;2023-04-07T15:43:21;14.60;99.90
790;DHT22;378;48.844;9.156;2023-04-07T15:45:48;14.40;99.90
790;DHT22;378;48.844;9.156;2023-04-07T15:48:16;14.10;99.90
790;DHT22;378;48.844;9.156;2023-04-07T15:50:43;13.80;99.90
790;DHT22;378;48.844;9.156;2023-04-07T15:53:11;13.60;99.90
790;DHT22;378;48.844;9.156;2023-04-07T15:55:38;13.40;99.90
790;DHT22;378;48.844;9.156;2023-04-07T15:58:05;13.30;99.90
790;DHT22;378;48.844;9.156;2023-04-07T16:00:33;13.20;99.90
790;DHT22;378;48.844;9.156;2023-04-07T16:03:01;13.10;99.90
790;DHT22;378;48.844;9.156;2023-04-07T16:05:28;12.90;99.90
790;DHT22;378;48.844;9.156;2023-04-07T16:07:55;12.90;99.90
790;DHT22;378;48.844;9.156;2023-04-07T16:10:23;12.80;99.90
790;DHT22;378;48.844;9.156;2023-04-07T16:12:50;12.80;99.90
790;DHT22;378;48.844;9.156;2023-04-07T16:15:17;12.70;99.90
790;DHT22;378;48.844;9.156;2023-04-07T16:17:46;12.70;99.90
790;DHT22;378;48.844;9.156;2023-04-07T16:20:14;12.70;99.90
790;DHT22;378;48.844;9.156;2023-04-07T16:22:41;12.70;99.90
790;DHT22;378;48.844;9.156;2023-04-07T16:25:10;12.70;99.90
790;DHT22;378;48.844;9.156;2023-04-07T16:27:38;12.60;99.90
790;DHT22;378;48.844;9.156;2023-04-07T16:30:06;12.60;99.90
790;DHT22;378;48.844;9.156;2023-04-07T16:32:34;12.50;99.90
790;DHT22;378;48.844;9.156;2023-04-07T16:35:01;12.40;99.90
790;DHT22;378;48.844;9.156;2023-04-07T16:37:28;12.30;99.90
790;DHT22;378;48.844;9.156;2023-04-07T16:39:55;12.20;99.90
790;DHT22;378;48.844;9.156;2023-04-07T16:42:24;12.10;99.90
790;DHT22;378;48.844;9.156;2023-04-07T16:44:54;12.10;99.90
790;DHT22;378;48.844;9.156;2023-04-07T16:47:22;12.10;99.90
790;DHT22;378;48.844;9.156;2023-04-07T16:49:49;12.10;99.90
790;DHT22;378;48.844;9.156;2023-04-07T16:52:17;12.20;99.90